Chitose — JD2925 — position and weather

sailwx.info

Track history (hours):
 
Tides and Currents Weather Stations Pressure Air Temp Water Temp Dewpoint Dewpoint Depression Visibility Wind Speed Wind Dir Waves Ship Positions

Chitose

Last reported at 2014-Jul-23 07:33 UTC. Time now 2014-Jul-23 18:03 UTC.
Position N 35°27' E 139°42'.

Length 33 m; draft 3.8 m.

Type: Tug. MMSI: 431000953.

Date/timePositionNaut miles runAvg speedWind from/ knotsBaromVisibWave heightAir tempDewpointWater temp
2014-Jul-23 07:33N 35°27' E 139°42'3 3.3
2014-Jul-23 06:33N 35°30' E 139°44'4 3.6
2014-Jul-23 05:33N 35°28' E 139°40'0 0.0
2014-Jul-23 04:33N 35°28' E 139°40'1 1.3
2014-Jul-23 03:33N 35°27' E 139°42'2 1.5
2014-Jul-23 02:33N 35°25' E 139°42'2 1.6
2014-Jul-23 01:33N 35°26' E 139°41'1 1.0
2014-Jul-23 00:33N 35°27' E 139°42'0 0.0
2014-Jul-22 23:33N 35°27' E 139°42'0 0.4
2014-Jul-22 22:33N 35°27' E 139°42'2 2.0
2014-Jul-22 21:33N 35°27' E 139°40'0 0.0
2014-Jul-22 07:12N 35°27' E 139°40'0 0.0
2014-Jul-22 06:34N 35°27' E 139°40'1 0.5
2014-Jul-22 05:34N 35°27' E 139°40'1 1.3
2014-Jul-22 04:33N 35°27' E 139°42'1 0.7
2014-Jul-22 03:33N 35°27' E 139°41'1 1.2
2014-Jul-22 02:34N 35°27' E 139°40'0 0.0
2014-Jul-22 01:34N 35°27' E 139°40'0 0.0
2014-Jul-22 00:33N 35°27' E 139°40'0 0.4
2014-Jul-21 23:34N 35°27' E 139°39'3 2.5
2014-Jul-21 22:34N 35°26' E 139°42'2 2.2
2014-Jul-21 21:34N 35°27' E 139°40'0 0.0
2014-Jul-20 07:10N 35°27' E 139°40'0 0.0
2014-Jul-20 06:33N 35°27' E 139°40'0 0.0
2014-Jul-20 05:33N 35°27' E 139°40'0 0.0
2014-Jul-20 04:33N 35°27' E 139°40'0 0.0
2014-Jul-20 03:33N 35°27' E 139°40'0 0.0
2014-Jul-20 02:33N 35°27' E 139°40'0 0.0
2014-Jul-20 01:33N 35°27' E 139°40'0 0.0
2014-Jul-20 00:33N 35°27' E 139°40'0 0.0
2014-Jul-19 23:33N 35°27' E 139°40'6 5.8
2014-Jul-19 22:33N 35°29' E 139°46'2 1.9
2014-Jul-19 21:33N 35°31' E 139°46'6 5.6
2014-Jul-19 20:33N 35°28' E 139°40'1 0.1
2014-Jul-19 10:29N 35°27' E 139°40'0 0.5
2014-Jul-19 09:34N 35°27' E 139°40'1 0.9
2014-Jul-19 08:34N 35°28' E 139°40'0 0.5
2014-Jul-19 07:34N 35°27' E 139°41'1 0.6
2014-Jul-19 06:34N 35°28' E 139°40'2 1.7
2014-Jul-19 05:33N 35°28' E 139°42'0 0.0
2014-Jul-19 04:34N 35°28' E 139°42'0 0.0
2014-Jul-19 03:33N 35°28' E 139°42'2 2.4
2014-Jul-19 02:34N 35°30' E 139°44'2 2.3
2014-Jul-19 01:33N 35°31' E 139°46'3 2.9
2014-Jul-19 00:33N 35°28' E 139°47'7 6.6
2014-Jul-18 23:34N 35°27' E 139°39'0 0.0
2014-Jul-18 22:34N 35°27' E 139°39'0 0.0
2014-Jul-18 00:03N 35°27' E 139°39'4 7.7
2014-Jul-17 23:33N 35°29' E 139°43'1 1.1
2014-Jul-17 22:33N 35°29' E 139°42'1 1.4
2014-Jul-17 21:33N 35°28' E 139°44'0 0.0
2014-Jul-17 20:33N 35°28' E 139°44'1 1.4
2014-Jul-17 19:33N 35°28' E 139°45'4 4.2
2014-Jul-17 18:33N 35°27' E 139°40'1 0.7
2014-Jul-17 17:33N 35°28' E 139°40'0 0.0
2014-Jul-17 16:33N 35°28' E 139°40'0 0.0
2014-Jul-17 15:33N 35°28' E 139°40'0 0.0
2014-Jul-17 14:34N 35°28' E 139°40'0 0.0
2014-Jul-17 13:33N 35°28' E 139°40'0 0.0
2014-Jul-17 12:33N 35°28' E 139°40'0 0.0
2014-Jul-17 11:33N 35°28' E 139°40'3 2.7
2014-Jul-17 10:34N 35°26' E 139°43'2 1.7
2014-Jul-17 09:33N 35°28' E 139°44'3 2.7
2014-Jul-17 08:33N 35°26' E 139°41'1 1.2
2014-Jul-17 07:33N 35°28' E 139°40'0 0.0
2014-Jul-17 06:33N 35°28' E 139°40'0 0.0
2014-Jul-17 05:33N 35°28' E 139°40'0 0.0
2014-Jul-17 04:33N 35°28' E 139°40'0 0.0
2014-Jul-17 03:33N 35°28' E 139°40'0 0.0
2014-Jul-17 02:33N 35°28' E 139°40'0 0.0
2014-Jul-17 01:33N 35°28' E 139°40'0 0.0
2014-Jul-17 00:33N 35°28' E 139°40'5 5.3
2014-Jul-16 23:33N 35°30' E 139°46'2 1.8
2014-Jul-16 22:34N 35°28' E 139°46'5 4.8
2014-Jul-16 21:33N 35°27' E 139°40'0 0.0
2014-Jul-16 08:10N 35°27' E 139°40'0 0.0
2014-Jul-16 07:33N 35°27' E 139°40'0 0.0
2014-Jul-16 06:33N 35°27' E 139°40'2 1.7
2014-Jul-16 05:33N 35°26' E 139°42'1 0.7
2014-Jul-16 04:33N 35°26' E 139°41'1 1.0
2014-Jul-16 03:33N 35°27' E 139°40'0 0.0
2014-Jul-16 02:33N 35°27' E 139°40'0 0.0
2014-Jul-16 01:33N 35°27' E 139°40'0 0.0
2014-Jul-16 00:33N 35°27' E 139°40'0 0.0
2014-Jul-15 23:33N 35°27' E 139°40'2 1.8
2014-Jul-15 22:33N 35°28' E 139°42'2 1.8
2014-Jul-15 21:33N 35°27' E 139°40'0 0.1
2014-Jul-15 20:33N 35°27' E 139°40'0 0.0
2014-Jul-15 09:21N 35°27' E 139°40'0 0.0
2014-Jul-15 08:33N 35°27' E 139°40'1 1.2
2014-Jul-15 07:33N 35°27' E 139°41'1 0.8
2014-Jul-15 06:33N 35°28' E 139°40'0 0.0
2014-Jul-15 05:33N 35°28' E 139°40'0 0.0
2014-Jul-15 04:33N 35°28' E 139°40'2 2.3
2014-Jul-15 03:34N 35°26' E 139°43'3 2.9
2014-Jul-15 02:33N 35°28' E 139°45'0 0.0
2014-Jul-15 01:33N 35°28' E 139°45'4 4.1
2014-Jul-15 00:33N 35°30' E 139°50'7 6.8
2014-Jul-14 23:33N 35°28' E 139°58'9 8.7
2014-Jul-14 22:33N 35°28' E 139°47'6 6.2
2014-Jul-14 21:34N 35°27' E 139°40'0 0.0
2014-Jul-14 20:03N 35°27' E 139°40'0 0.0
2014-Jul-14 19:33N 35°27' E 139°40'0 0.0
2014-Jul-14 18:33N 35°27' E 139°40'0 0.0
2014-Jul-14 17:33N 35°27' E 139°40'0 0.0
2014-Jul-14 16:33N 35°27' E 139°40'0 0.0
2014-Jul-14 15:34N 35°27' E 139°40'0 0.0
2014-Jul-14 14:33N 35°27' E 139°40'0 0.0
2014-Jul-14 13:34N 35°27' E 139°40'0 0.0
2014-Jul-14 12:33N 35°27' E 139°40'0 0.0
2014-Jul-14 11:34N 35°27' E 139°40'0 0.0
2014-Jul-14 10:33N 35°27' E 139°40'0 0.0
2014-Jul-14 09:33N 35°27' E 139°40'0 0.0
2014-Jul-14 08:33N 35°27' E 139°40'0 0.0
2014-Jul-14 07:34N 35°27' E 139°40'0 0.0
2014-Jul-14 06:33N 35°27' E 139°40'0 0.0
2014-Jul-14 05:33N 35°27' E 139°40'0 0.2
2014-Jul-14 04:33N 35°27' E 139°40'3 3.3
2014-Jul-14 03:33N 35°24' E 139°39'1 0.7
2014-Jul-14 02:33N 35°24' E 139°38'3 2.5
2014-Jul-14 01:34N 35°23' E 139°41'3 3.0
2014-Jul-14 00:33N 35°26' E 139°42'2 1.9
2014-Jul-13 23:34N 35°28' E 139°40'2 2.3
2014-Jul-13 22:33N 35°25' E 139°41'1 1.3
2014-Jul-13 21:34N 35°25' E 139°42'3 3.0
2014-Jul-13 20:33N 35°27' E 139°39'0 0.0
2014-Jul-13 13:11N 35°27' E 139°39'4 6.3
2014-Jul-13 12:33N 35°30' E 139°43'4 3.9
2014-Jul-13 11:33N 35°27' E 139°40'0 0.0
2014-Jul-13 10:33N 35°27' E 139°40'1 0.6
2014-Jul-13 09:33N 35°27' E 139°41'2 1.6
2014-Jul-13 08:34N 35°26' E 139°42'  
Track history (hours):
 
Tides and Currents Weather Stations Pressure Air Temp Water Temp Dewpoint Dewpoint Depression Visibility Wind Speed Wind Dir Waves Ship Positions

Chitose

Last reported at 2014-Jul-23 07:33 UTC. Time now 2014-Jul-23 18:03 UTC.
Position N 35°27' E 139°42'.

Length 33 m; draft 3.8 m.

Type: Tug. MMSI: 431000953.

Date/timePositionNaut miles runAvg speedWind from/ knotsBaromVisibWave heightAir tempDewpointWater temp
2014-Jul-23 07:33N 35°27' E 139°42'3 3.3
2014-Jul-23 06:33N 35°30' E 139°44'4 3.6
2014-Jul-23 05:33N 35°28' E 139°40'0 0.0
2014-Jul-23 04:33N 35°28' E 139°40'1 1.3
2014-Jul-23 03:33N 35°27' E 139°42'2 1.5
2014-Jul-23 02:33N 35°25' E 139°42'2 1.6
2014-Jul-23 01:33N 35°26' E 139°41'1 1.0
2014-Jul-23 00:33N 35°27' E 139°42'0 0.0
2014-Jul-22 23:33N 35°27' E 139°42'0 0.4
2014-Jul-22 22:33N 35°27' E 139°42'2 2.0
2014-Jul-22 21:33N 35°27' E 139°40'0 0.0
2014-Jul-22 07:12N 35°27' E 139°40'0 0.0
2014-Jul-22 06:34N 35°27' E 139°40'1 0.5
2014-Jul-22 05:34N 35°27' E 139°40'1 1.3
2014-Jul-22 04:33N 35°27' E 139°42'1 0.7
2014-Jul-22 03:33N 35°27' E 139°41'1 1.2
2014-Jul-22 02:34N 35°27' E 139°40'0 0.0
2014-Jul-22 01:34N 35°27' E 139°40'0 0.0
2014-Jul-22 00:33N 35°27' E 139°40'0 0.4
2014-Jul-21 23:34N 35°27' E 139°39'3 2.5
2014-Jul-21 22:34N 35°26' E 139°42'2 2.2
2014-Jul-21 21:34N 35°27' E 139°40'0 0.0
2014-Jul-20 07:10N 35°27' E 139°40'0 0.0
2014-Jul-20 06:33N 35°27' E 139°40'0 0.0
2014-Jul-20 05:33N 35°27' E 139°40'0 0.0
2014-Jul-20 04:33N 35°27' E 139°40'0 0.0
2014-Jul-20 03:33N 35°27' E 139°40'0 0.0
2014-Jul-20 02:33N 35°27' E 139°40'0 0.0
2014-Jul-20 01:33N 35°27' E 139°40'0 0.0
2014-Jul-20 00:33N 35°27' E 139°40'0 0.0
2014-Jul-19 23:33N 35°27' E 139°40'6 5.8
2014-Jul-19 22:33N 35°29' E 139°46'2 1.9
2014-Jul-19 21:33N 35°31' E 139°46'6 5.6
2014-Jul-19 20:33N 35°28' E 139°40'1 0.1
2014-Jul-19 10:29N 35°27' E 139°40'0 0.5
2014-Jul-19 09:34N 35°27' E 139°40'1 0.9
2014-Jul-19 08:34N 35°28' E 139°40'0 0.5
2014-Jul-19 07:34N 35°27' E 139°41'1 0.6
2014-Jul-19 06:34N 35°28' E 139°40'2 1.7
2014-Jul-19 05:33N 35°28' E 139°42'0 0.0
2014-Jul-19 04:34N 35°28' E 139°42'0 0.0
2014-Jul-19 03:33N 35°28' E 139°42'2 2.4
2014-Jul-19 02:34N 35°30' E 139°44'2 2.3
2014-Jul-19 01:33N 35°31' E 139°46'3 2.9
2014-Jul-19 00:33N 35°28' E 139°47'7 6.6
2014-Jul-18 23:34N 35°27' E 139°39'0 0.0
2014-Jul-18 22:34N 35°27' E 139°39'0 0.0
2014-Jul-18 00:03N 35°27' E 139°39'4 7.7
2014-Jul-17 23:33N 35°29' E 139°43'1 1.1
2014-Jul-17 22:33N 35°29' E 139°42'1 1.4
2014-Jul-17 21:33N 35°28' E 139°44'0 0.0
2014-Jul-17 20:33N 35°28' E 139°44'1 1.4
2014-Jul-17 19:33N 35°28' E 139°45'4 4.2
2014-Jul-17 18:33N 35°27' E 139°40'1 0.7
2014-Jul-17 17:33N 35°28' E 139°40'0 0.0
2014-Jul-17 16:33N 35°28' E 139°40'0 0.0
2014-Jul-17 15:33N 35°28' E 139°40'0 0.0
2014-Jul-17 14:34N 35°28' E 139°40'0 0.0
2014-Jul-17 13:33N 35°28' E 139°40'0 0.0
2014-Jul-17 12:33N 35°28' E 139°40'0 0.0
2014-Jul-17 11:33N 35°28' E 139°40'3 2.7
2014-Jul-17 10:34N 35°26' E 139°43'2 1.7
2014-Jul-17 09:33N 35°28' E 139°44'3 2.7
2014-Jul-17 08:33N 35°26' E 139°41'1 1.2
2014-Jul-17 07:33N 35°28' E 139°40'0 0.0
2014-Jul-17 06:33N 35°28' E 139°40'0 0.0
2014-Jul-17 05:33N 35°28' E 139°40'0 0.0
2014-Jul-17 04:33N 35°28' E 139°40'0 0.0
2014-Jul-17 03:33N 35°28' E 139°40'0 0.0
2014-Jul-17 02:33N 35°28' E 139°40'0 0.0
2014-Jul-17 01:33N 35°28' E 139°40'0 0.0
2014-Jul-17 00:33N 35°28' E 139°40'5 5.3
2014-Jul-16 23:33N 35°30' E 139°46'2 1.8
2014-Jul-16 22:34N 35°28' E 139°46'5 4.8
2014-Jul-16 21:33N 35°27' E 139°40'0 0.0
2014-Jul-16 08:10N 35°27' E 139°40'0 0.0
2014-Jul-16 07:33N 35°27' E 139°40'0 0.0
2014-Jul-16 06:33N 35°27' E 139°40'2 1.7
2014-Jul-16 05:33N 35°26' E 139°42'1 0.7
2014-Jul-16 04:33N 35°26' E 139°41'1 1.0
2014-Jul-16 03:33N 35°27' E 139°40'0 0.0
2014-Jul-16 02:33N 35°27' E 139°40'0 0.0
2014-Jul-16 01:33N 35°27' E 139°40'0 0.0
2014-Jul-16 00:33N 35°27' E 139°40'0 0.0
2014-Jul-15 23:33N 35°27' E 139°40'2 1.8
2014-Jul-15 22:33N 35°28' E 139°42'2 1.8
2014-Jul-15 21:33N 35°27' E 139°40'0 0.1
2014-Jul-15 20:33N 35°27' E 139°40'0 0.0
2014-Jul-15 09:21N 35°27' E 139°40'0 0.0
2014-Jul-15 08:33N 35°27' E 139°40'1 1.2
2014-Jul-15 07:33N 35°27' E 139°41'1 0.8
2014-Jul-15 06:33N 35°28' E 139°40'0 0.0
2014-Jul-15 05:33N 35°28' E 139°40'0 0.0
2014-Jul-15 04:33N 35°28' E 139°40'2 2.3
2014-Jul-15 03:34N 35°26' E 139°43'3 2.9
2014-Jul-15 02:33N 35°28' E 139°45'0 0.0
2014-Jul-15 01:33N 35°28' E 139°45'4 4.1
2014-Jul-15 00:33N 35°30' E 139°50'7 6.8
2014-Jul-14 23:33N 35°28' E 139°58'9 8.7
2014-Jul-14 22:33N 35°28' E 139°47'6 6.2
2014-Jul-14 21:34N 35°27' E 139°40'0 0.0
2014-Jul-14 20:03N 35°27' E 139°40'0 0.0
2014-Jul-14 19:33N 35°27' E 139°40'0 0.0
2014-Jul-14 18:33N 35°27' E 139°40'0 0.0
2014-Jul-14 17:33N 35°27' E 139°40'0 0.0
2014-Jul-14 16:33N 35°27' E 139°40'0 0.0
2014-Jul-14 15:34N 35°27' E 139°40'0 0.0
2014-Jul-14 14:33N 35°27' E 139°40'0 0.0
2014-Jul-14 13:34N 35°27' E 139°40'0 0.0
2014-Jul-14 12:33N 35°27' E 139°40'0 0.0
2014-Jul-14 11:34N 35°27' E 139°40'0 0.0
2014-Jul-14 10:33N 35°27' E 139°40'0 0.0
2014-Jul-14 09:33N 35°27' E 139°40'0 0.0
2014-Jul-14 08:33N 35°27' E 139°40'0 0.0
2014-Jul-14 07:34N 35°27' E 139°40'0 0.0
2014-Jul-14 06:33N 35°27' E 139°40'0 0.0
2014-Jul-14 05:33N 35°27' E 139°40'0 0.2
2014-Jul-14 04:33N 35°27' E 139°40'3 3.3
2014-Jul-14 03:33N 35°24' E 139°39'1 0.7
2014-Jul-14 02:33N 35°24' E 139°38'3 2.5
2014-Jul-14 01:34N 35°23' E 139°41'3 3.0
2014-Jul-14 00:33N 35°26' E 139°42'2 1.9
2014-Jul-13 23:34N 35°28' E 139°40'2 2.3
2014-Jul-13 22:33N 35°25' E 139°41'1 1.3
2014-Jul-13 21:34N 35°25' E 139°42'3 3.0
2014-Jul-13 20:33N 35°27' E 139°39'0 0.0
2014-Jul-13 13:11N 35°27' E 139°39'4 6.3
2014-Jul-13 12:33N 35°30' E 139°43'4 3.9
2014-Jul-13 11:33N 35°27' E 139°40'0 0.0
2014-Jul-13 10:33N 35°27' E 139°40'1 0.6
2014-Jul-13 09:33N 35°27' E 139°41'2 1.6
2014-Jul-13 08:34N 35°26' E 139°42'  

Dump ship's entire track history